createdAt,value
2022-09-21T00:01:31.229Z,11.30
2022-09-21T00:04:00.106Z,11.35
2022-09-21T00:06:28.225Z,10.77
2022-09-21T00:08:55.692Z,10.76
2022-09-21T00:11:27.032Z,11.53
2022-09-21T00:14:00.844Z,11.24
2022-09-21T00:16:28.506Z,11.40
2022-09-21T00:18:55.468Z,11.00
2022-09-21T00:21:22.335Z,10.90
2022-09-21T00:23:51.636Z,10.92
2022-09-21T00:26:25.292Z,11.36
2022-09-21T00:28:58.798Z,10.86
2022-09-21T00:31:26.653Z,10.57
2022-09-21T00:33:53.874Z,11.21
2022-09-21T00:36:23.996Z,11.33
2022-09-21T00:38:54.878Z,10.73
2022-09-21T00:41:22.038Z,11.29
2022-09-21T00:44:25.254Z,11.31
2022-09-21T00:46:56.884Z,11.15
2022-09-21T00:49:27.098Z,10.80
2022-09-21T00:51:59.589Z,10.51
2022-09-21T00:54:30.515Z,11.08
2022-09-21T00:56:59.927Z,11.12
2022-09-21T00:59:30.107Z,11.13
2022-09-21T01:01:58.632Z,10.25
2022-09-21T01:04:28.384Z,10.64
2022-09-21T01:07:00.011Z,10.55
2022-09-21T01:09:29.458Z,10.65
2022-09-21T01:11:56.026Z,11.38
2022-09-21T01:14:34.865Z,11.49
2022-09-21T01:17:15.257Z,11.57
2022-09-21T01:19:57.332Z,11.59
2022-09-21T01:22:38.955Z,11.61
2022-09-21T01:25:33.058Z,11.64
2022-09-21T01:28:29.330Z,11.61
2022-09-21T01:30:59.733Z,11.19
2022-09-21T01:33:50.963Z,9.96
2022-09-21T01:36:21.508Z,11.63
2022-09-21T01:38:54.294Z,11.59
2022-09-21T01:41:28.122Z,11.52
2022-09-21T01:43:59.566Z,11.32
2022-09-21T01:46:30.827Z,11.45
2022-09-21T01:49:00.906Z,10.72
2022-09-21T01:51:32.918Z,10.72
2022-09-21T01:54:10.154Z,10.59
2022-09-21T01:56:42.012Z,11.54
2022-09-21T01:59:30.541Z,11.35
2022-09-21T02:02:00.529Z,10.89
2022-09-21T02:04:27.381Z,11.76
2022-09-21T02:06:54.141Z,11.51
2022-09-21T02:09:23.779Z,10.92
2022-09-21T02:11:52.726Z,11.02
2022-09-21T02:14:24.094Z,11.17
2022-09-21T02:17:06.127Z,11.69
2022-09-21T02:19:57.868Z,11.74
2022-09-21T02:22:33.945Z,11.77
2022-09-21T02:25:18.594Z,11.78
2022-09-21T02:28:01.203Z,11.82
2022-09-21T02:30:28.142Z,11.15
2022-09-21T02:33:13.568Z,11.83
2022-09-21T02:35:45.393Z,11.25
2022-09-21T02:38:33.275Z,11.29
2022-09-21T02:41:06.988Z,11.77
2022-09-21T02:43:45.440Z,11.26
2022-09-21T02:46:19.864Z,11.78
2022-09-21T02:48:51.669Z,11.14
2022-09-21T02:51:25.938Z,10.90
2022-09-21T02:53:54.003Z,11.50
2022-09-21T02:56:21.588Z,10.99
2022-09-21T02:58:51.172Z,11.33
2022-09-21T03:01:19.029Z,10.55
2022-09-21T03:03:45.788Z,10.95
2022-09-21T03:06:15.223Z,10.78
2022-09-21T03:08:41.844Z,11.35
2022-09-21T03:11:09.128Z,10.64
2022-09-21T03:13:36.776Z,11.13
2022-09-21T03:16:07.481Z,11.03
2022-09-21T03:18:36.648Z,11.06
2022-09-21T03:21:03.606Z,10.43
2022-09-21T03:23:30.393Z,10.71
2022-09-21T03:25:57.157Z,10.67
2022-09-21T03:28:24.497Z,10.05
2022-09-21T03:30:54.664Z,10.91
2022-09-21T03:33:21.792Z,9.99
2022-09-21T03:35:50.789Z,10.84
2022-09-21T03:38:18.872Z,10.71
2022-09-21T03:40:51.770Z,10.13
2022-09-21T03:43:21.233Z,10.88
2022-09-21T03:45:50.021Z,9.44
2022-09-21T03:48:19.027Z,10.38
2022-09-21T03:50:48.031Z,10.29
2022-09-21T03:53:15.252Z,10.23
2022-09-21T03:55:42.138Z,10.40
2022-09-21T03:58:09.088Z,10.69
2022-09-21T04:00:36.824Z,10.06
2022-09-21T04:03:03.821Z,10.03
2022-09-21T04:05:32.763Z,10.43
2022-09-21T04:08:02.085Z,10.47
2022-09-21T04:10:32.889Z,10.32
2022-09-21T04:13:04.862Z,10.61
2022-09-21T04:15:34.098Z,10.00
2022-09-21T04:18:00.893Z,10.19
2022-09-21T04:20:27.633Z,10.70
2022-09-21T04:22:54.622Z,10.57
2022-09-21T04:25:21.292Z,10.54
2022-09-21T04:27:50.200Z,9.40
2022-09-21T04:30:17.162Z,10.34
2022-09-21T04:32:48.674Z,10.44
2022-09-21T04:35:17.901Z,10.72
2022-09-21T04:37:44.571Z,10.51
2022-09-21T04:40:11.277Z,10.25
2022-09-21T04:42:40.386Z,10.38
2022-09-21T04:45:07.916Z,10.47
2022-09-21T04:47:36.690Z,10.68
2022-09-21T04:50:03.508Z,9.95
2022-09-21T04:52:32.707Z,10.69
2022-09-21T04:54:59.537Z,10.14
2022-09-21T04:57:28.605Z,10.12
2022-09-21T04:59:55.373Z,9.64
2022-09-21T05:02:22.475Z,10.54
2022-09-21T05:04:51.152Z,10.82
2022-09-21T05:07:20.818Z,10.95
2022-09-21T05:10:05.127Z,11.08
2022-09-21T05:12:32.830Z,10.39
2022-09-21T05:15:02.440Z,11.19
2022-09-21T05:17:29.248Z,11.20
2022-09-21T05:19:58.177Z,10.81
2022-09-21T05:22:27.881Z,10.54
2022-09-21T05:24:57.283Z,11.13
2022-09-21T05:27:29.120Z,10.87
2022-09-21T05:29:56.212Z,11.13
2022-09-21T05:32:34.259Z,11.21
2022-09-21T05:35:07.372Z,10.70
2022-09-21T05:37:48.210Z,11.48
2022-09-21T05:40:18.505Z,11.48
2022-09-21T05:42:50.315Z,11.75
2022-09-21T05:45:18.698Z,11.91
2022-09-21T05:48:06.035Z,11.63
2022-09-21T05:50:50.992Z,11.47
2022-09-21T05:53:54.403Z,12.18
2022-09-21T05:56:30.266Z,12.21
2022-09-21T05:59:22.416Z,11.67
2022-09-21T06:02:05.133Z,12.19
2022-09-21T06:04:32.144Z,11.89
2022-09-21T06:06:58.883Z,11.62
2022-09-21T06:09:26.802Z,11.41
2022-09-21T06:11:53.840Z,11.04
2022-09-21T06:14:26.546Z,10.63
2022-09-21T06:16:55.639Z,11.25
2022-09-21T06:19:22.382Z,11.60
2022-09-21T06:21:49.355Z,11.42
2022-09-21T06:24:18.221Z,11.50
2022-09-21T06:26:47.320Z,11.68
2022-09-21T06:29:17.542Z,11.39
2022-09-21T06:31:44.246Z,11.57
2022-09-21T06:34:13.475Z,11.30
2022-09-21T06:36:47.971Z,11.73
2022-09-21T06:39:17.375Z,10.97
2022-09-21T06:41:47.422Z,11.92
2022-09-21T06:44:16.019Z,11.64
2022-09-21T06:46:42.893Z,12.13
2022-09-21T06:49:12.253Z,12.21
2022-09-21T06:51:41.513Z,12.00
2022-09-21T06:54:08.346Z,12.08
2022-09-21T06:56:37.851Z,12.28
2022-09-21T06:59:04.751Z,12.30
2022-09-21T07:01:37.198Z,11.96
2022-09-21T07:04:03.959Z,11.96
2022-09-21T07:06:32.875Z,12.14
2022-09-21T07:11:50.947Z,12.38
2022-09-21T07:14:20.375Z,12.66
2022-09-21T07:16:49.386Z,12.70
2022-09-21T07:19:16.167Z,12.13
2022-09-21T07:21:42.917Z,12.72
2022-09-21T07:24:15.440Z,12.34
2022-09-21T07:26:46.967Z,12.89
2022-09-21T07:29:13.542Z,12.98
2022-09-21T07:31:44.688Z,13.08
2022-09-21T07:34:16.604Z,12.87
2022-09-21T07:36:45.802Z,12.95
2022-09-21T07:39:12.528Z,12.64
2022-09-21T07:41:39.192Z,13.24
2022-09-21T07:44:06.004Z,13.21
2022-09-21T07:46:32.756Z,13.20
2022-09-21T07:48:59.480Z,13.12
2022-09-21T07:51:26.144Z,13.22
2022-09-21T07:53:56.919Z,13.47
2022-09-21T07:56:23.585Z,13.15
2022-09-21T07:59:08.395Z,13.63
2022-09-21T08:01:40.492Z,13.73
2022-09-21T08:04:13.801Z,13.95
2022-09-21T08:06:40.614Z,13.43
2022-09-21T08:09:08.524Z,13.47
2022-09-21T08:11:38.320Z,13.73
2022-09-21T08:14:07.443Z,14.17
2022-09-21T08:16:38.206Z,14.23
2022-09-21T08:19:05.554Z,14.24
2022-09-21T08:21:32.357Z,13.44
2022-09-21T08:23:59.090Z,13.85
2022-09-21T08:26:26.302Z,13.93
2022-09-21T08:28:53.841Z,14.67
2022-09-21T08:31:24.492Z,14.70
2022-09-21T08:33:54.767Z,14.97
2022-09-21T08:36:23.858Z,14.55
2022-09-21T08:38:50.928Z,15.09
2022-09-21T08:41:17.735Z,15.12
2022-09-21T08:43:46.022Z,14.68
2022-09-21T08:46:17.318Z,14.74
2022-09-21T08:49:10.205Z,14.71
2022-09-21T08:51:38.797Z,14.97
2022-09-21T08:54:19.644Z,15.13
2022-09-21T08:57:04.452Z,15.19
2022-09-21T08:59:32.046Z,14.45
2022-09-21T09:02:13.553Z,15.05
2022-09-21T09:04:51.868Z,15.54
2022-09-21T09:07:41.807Z,15.72
2022-09-21T09:10:14.508Z,15.94
2022-09-21T09:12:47.102Z,15.80
2022-09-21T09:15:16.899Z,15.58
2022-09-21T09:17:59.306Z,15.71
2022-09-21T09:20:39.560Z,15.87
2022-09-21T09:23:18.487Z,15.64
2022-09-21T09:25:47.585Z,15.94
2022-09-21T09:28:20.376Z,16.07
2022-09-21T09:30:53.131Z,15.90
2022-09-21T09:33:29.258Z,15.83
2022-09-21T09:36:02.428Z,15.74
2022-09-21T09:38:44.292Z,15.25
2022-09-21T09:41:30.043Z,14.80
2022-09-21T09:44:28.079Z,15.58
2022-09-21T09:47:32.426Z,15.68
2022-09-21T09:50:06.641Z,15.68
2022-09-21T09:52:36.249Z,15.86
2022-09-21T09:55:21.632Z,15.94
2022-09-21T09:57:50.874Z,15.67
2022-09-21T10:00:20.761Z,15.95
2022-09-21T10:02:50.614Z,15.97
2022-09-21T10:05:41.154Z,16.21
2022-09-21T10:08:42.056Z,15.60
2022-09-21T10:11:12.804Z,15.89
2022-09-21T10:13:46.145Z,15.84
2022-09-21T10:16:24.398Z,15.77
2022-09-21T10:18:56.476Z,16.20
2022-09-21T10:21:35.551Z,16.59
2022-09-21T10:24:05.976Z,16.77
2022-09-21T10:26:57.529Z,15.95
2022-09-21T10:29:30.834Z,16.07
2022-09-21T10:32:29.859Z,16.62
2022-09-21T10:35:07.197Z,16.87
2022-09-21T10:37:35.876Z,17.06
2022-09-21T10:40:04.069Z,17.19
2022-09-21T10:42:35.544Z,17.42
2022-09-21T10:45:13.116Z,18.01
2022-09-21T10:47:43.566Z,18.54
2022-09-21T10:50:35.249Z,18.57
2022-09-21T10:53:10.677Z,18.21
2022-09-21T10:55:52.590Z,18.52
2022-09-21T10:58:27.420Z,18.50
2022-09-21T11:00:55.600Z,19.84
2022-09-21T11:03:31.280Z,19.55
2022-09-21T11:06:04.956Z,19.51
2022-09-21T11:09:01.198Z,19.49
2022-09-21T11:11:30.126Z,19.39
2022-09-21T11:14:05.060Z,19.01
2022-09-21T11:16:37.195Z,19.26
2022-09-21T11:19:24.640Z,19.17
2022-09-21T11:22:13.220Z,19.38
2022-09-21T11:25:01.892Z,19.60
2022-09-21T11:27:33.752Z,19.52
2022-09-21T11:30:15.436Z,19.38
2022-09-21T11:33:06.661Z,19.84
2022-09-21T11:35:42.551Z,19.39
2022-09-21T11:38:09.965Z,19.42
2022-09-21T11:40:53.279Z,19.31
2022-09-21T11:43:44.868Z,19.93
2022-09-21T11:46:20.536Z,20.83
2022-09-21T11:49:19.653Z,21.31
2022-09-21T11:51:46.293Z,22.77
2022-09-21T11:54:46.651Z,23.46
2022-09-21T11:57:18.843Z,24.06
2022-09-21T11:59:51.206Z,23.44
2022-09-21T12:03:06.428Z,23.61
2022-09-21T12:05:50.768Z,22.52
2022-09-21T12:08:50.455Z,22.92
2022-09-21T12:11:31.664Z,23.40
2022-09-21T12:17:09.300Z,24.79
2022-09-21T12:19:44.890Z,23.15
2022-09-21T12:22:28.894Z,23.11
2022-09-21T12:25:16.995Z,22.93
2022-09-21T12:27:48.928Z,22.68
2022-09-21T12:30:23.378Z,22.96
2022-09-21T12:33:17.758Z,21.36
2022-09-21T12:36:18.657Z,20.72
2022-09-21T12:39:13.695Z,19.82
2022-09-21T12:41:43.654Z,19.86
2022-09-21T12:44:20.637Z,18.83
2022-09-21T12:46:57.408Z,19.18
2022-09-21T12:49:33.489Z,19.39
2022-09-21T12:52:07.228Z,19.16
2022-09-21T12:54:44.363Z,20.11
2022-09-21T12:57:49.318Z,20.44
2022-09-21T13:00:19.770Z,19.36
2022-09-21T13:02:53.782Z,19.77
2022-09-21T13:05:38.439Z,19.25
2022-09-21T13:08:13.637Z,20.84
2022-09-21T13:10:55.907Z,21.89
2022-09-21T13:13:51.357Z,21.12
2022-09-21T13:16:32.603Z,22.66
2022-09-21T13:19:22.258Z,23.28
2022-09-21T13:22:29.205Z,22.94
2022-09-21T13:25:18.728Z,21.71
2022-09-21T13:28:20.072Z,22.03
2022-09-21T13:31:39.417Z,23.02
2022-09-21T13:34:09.664Z,24.55
2022-09-21T13:36:39.264Z,24.28
2022-09-21T13:39:09.892Z,25.13
2022-09-21T13:42:01.905Z,25.61
2022-09-21T13:44:42.452Z,25.65
2022-09-21T13:47:14.307Z,25.37
2022-09-21T13:49:45.200Z,24.88
2022-09-21T13:52:15.772Z,24.58
2022-09-21T13:54:45.499Z,24.88
2022-09-21T13:57:32.825Z,24.12
2022-09-21T14:00:12.888Z,24.81
2022-09-21T14:02:47.495Z,23.91
2022-09-21T14:05:26.371Z,22.93
2022-09-21T14:08:05.241Z,23.73
2022-09-21T14:10:35.793Z,23.42
2022-09-21T14:13:07.588Z,24.52
2022-09-21T14:15:37.851Z,25.20
2022-09-21T14:18:17.125Z,25.42
2022-09-21T14:21:09.889Z,25.24
2022-09-21T14:23:39.372Z,24.78
2022-09-21T14:26:37.497Z,26.23
2022-09-21T14:29:12.786Z,26.45
2022-09-21T14:31:41.790Z,26.05
2022-09-21T14:34:15.918Z,25.76
2022-09-21T14:36:45.811Z,26.16
2022-09-21T14:39:35.304Z,25.61
2022-09-21T14:42:20.164Z,25.92
2022-09-21T14:44:51.417Z,25.27
2022-09-21T14:47:25.482Z,25.76
2022-09-21T14:50:15.208Z,25.72
2022-09-21T14:52:57.419Z,26.50
2022-09-21T14:55:45.856Z,24.69
2022-09-21T14:58:35.091Z,25.14
2022-09-21T15:01:34.414Z,24.99
2022-09-21T15:04:19.081Z,23.67
2022-09-21T15:07:21.318Z,24.70
2022-09-21T15:10:25.520Z,24.20
2022-09-21T15:13:01.800Z,24.08
2022-09-21T15:15:38.064Z,23.67
2022-09-21T15:18:20.498Z,23.03
2022-09-21T15:21:01.474Z,23.04
2022-09-21T15:23:33.464Z,23.95
2022-09-21T15:26:13.957Z,22.41
2022-09-21T15:29:08.445Z,23.33
2022-09-21T15:31:38.228Z,22.64
2022-09-21T15:34:09.565Z,22.27
2022-09-21T15:36:39.364Z,22.89
2022-09-21T15:39:23.541Z,22.61
2022-09-21T15:42:18.519Z,21.73
2022-09-21T15:44:49.061Z,21.72
2022-09-21T15:47:20.958Z,21.77
2022-09-21T15:49:48.130Z,21.05
2022-09-21T15:52:40.334Z,21.37
2022-09-21T15:55:25.386Z,20.15
2022-09-21T15:57:56.400Z,20.20
2022-09-21T16:00:26.703Z,21.45
2022-09-21T16:03:05.935Z,21.08
2022-09-21T16:05:55.427Z,20.71
2022-09-21T16:08:31.126Z,20.72
2022-09-21T16:11:19.065Z,20.69
2022-09-21T16:14:05.805Z,20.51
2022-09-21T16:16:32.784Z,18.84
2022-09-21T16:19:02.124Z,19.23
2022-09-21T16:21:37.745Z,19.26
2022-09-21T16:24:12.396Z,19.17
2022-09-21T16:26:42.031Z,17.96
2022-09-21T16:29:09.113Z,18.38
2022-09-21T16:31:36.232Z,18.15
2022-09-21T16:34:23.267Z,17.73
2022-09-21T16:36:51.813Z,17.33
2022-09-21T16:39:19.934Z,16.74
2022-09-21T16:42:05.811Z,16.65
2022-09-21T16:44:40.239Z,15.84
2022-09-21T16:47:13.269Z,16.58
2022-09-21T16:49:40.052Z,16.02
2022-09-21T16:52:07.575Z,13.86
2022-09-21T16:54:39.034Z,14.74
2022-09-21T16:57:06.483Z,15.84
2022-09-21T16:59:36.597Z,15.92
2022-09-21T17:02:06.061Z,14.96
2022-09-21T17:04:34.504Z,15.96
2022-09-21T17:07:03.359Z,15.00
2022-09-21T17:09:35.497Z,15.34
2022-09-21T17:12:04.151Z,14.95
2022-09-21T17:14:44.322Z,14.76
2022-09-21T17:17:27.922Z,14.14
2022-09-21T17:19:57.136Z,15.44
2022-09-21T17:22:30.419Z,15.14
2022-09-21T17:24:59.356Z,15.28
2022-09-21T17:27:29.123Z,14.12
2022-09-21T17:29:56.554Z,15.20
2022-09-21T17:32:26.724Z,14.13
2022-09-21T17:35:15.260Z,15.10
2022-09-21T17:37:44.715Z,15.05
2022-09-21T17:40:15.147Z,15.00
2022-09-21T17:42:46.506Z,15.01
2022-09-21T17:45:25.180Z,15.04
2022-09-21T17:47:52.441Z,14.51
2022-09-21T17:50:23.310Z,15.09
2022-09-21T17:53:08.954Z,14.68
2022-09-21T17:55:35.905Z,14.67
2022-09-21T17:58:34.492Z,13.69
2022-09-21T18:01:07.494Z,15.19
2022-09-21T18:03:41.218Z,14.64
2022-09-21T18:06:12.940Z,14.94
2022-09-21T18:08:43.187Z,14.96
2022-09-21T18:11:37.214Z,14.86
2022-09-21T18:14:17.401Z,14.69
2022-09-21T18:17:02.808Z,14.56
2022-09-21T18:20:10.938Z,14.53
2022-09-21T18:22:40.527Z,14.55
2022-09-21T18:25:16.035Z,14.53
2022-09-21T18:27:48.144Z,14.03
2022-09-21T18:30:19.996Z,13.86
2022-09-21T18:32:49.479Z,14.62
2022-09-21T18:35:34.929Z,14.68
2022-09-21T18:38:40.987Z,14.71
2022-09-21T18:41:17.899Z,13.47
2022-09-21T18:43:50.564Z,14.80
2022-09-21T18:46:21.437Z,14.81
2022-09-21T18:48:53.563Z,14.78
2022-09-21T18:51:22.976Z,14.76
2022-09-21T18:53:58.313Z,12.91
2022-09-21T18:56:34.115Z,14.71
2022-09-21T18:59:03.532Z,13.91
2022-09-21T19:01:34.010Z,14.62
2022-09-21T19:04:01.538Z,14.56
2022-09-21T19:06:57.155Z,13.90
2022-09-21T19:09:42.213Z,14.58
2022-09-21T19:12:21.444Z,14.55
2022-09-21T19:15:00.296Z,14.41
2022-09-21T19:17:39.129Z,14.32
2022-09-21T19:20:33.134Z,14.33
2022-09-21T19:23:28.187Z,14.40
2022-09-21T19:26:38.468Z,14.39
2022-09-21T19:29:26.510Z,13.71
2022-09-21T19:31:55.552Z,13.69
2022-09-21T19:34:28.130Z,12.92
2022-09-21T19:36:57.330Z,13.61
2022-09-21T19:39:24.191Z,12.47
2022-09-21T19:42:02.174Z,12.92
2022-09-21T19:44:34.899Z,13.34
2022-09-21T19:47:16.947Z,14.05
2022-09-21T19:49:49.638Z,14.06
2022-09-21T19:52:22.445Z,14.00
2022-09-21T19:55:10.200Z,13.86
2022-09-21T19:58:00.133Z,13.65
2022-09-21T20:00:29.387Z,13.06
2022-09-21T20:03:11.100Z,12.58
2022-09-21T20:05:47.755Z,13.80
2022-09-21T20:08:29.448Z,13.72
2022-09-21T20:11:02.079Z,13.72
2022-09-21T20:13:57.922Z,13.72
2022-09-21T20:16:37.743Z,11.78
2022-09-21T20:19:15.132Z,12.53
2022-09-21T20:21:43.269Z,13.30
2022-09-21T20:24:19.826Z,12.10
2022-09-21T20:26:53.584Z,13.63
2022-09-21T20:29:23.258Z,12.61
2022-09-21T20:31:52.767Z,12.93
2022-09-21T20:34:22.247Z,12.97
2022-09-21T20:36:53.929Z,12.91
2022-09-21T20:39:20.857Z,12.29
2022-09-21T20:41:47.526Z,13.34
2022-09-21T20:44:14.303Z,11.80
2022-09-21T20:46:40.982Z,12.97
2022-09-21T20:49:15.316Z,13.35
2022-09-21T20:51:45.415Z,11.83
2022-09-21T20:54:13.502Z,12.47
2022-09-21T20:56:40.934Z,13.36
2022-09-21T20:59:09.831Z,13.34
2022-09-21T21:01:36.622Z,12.54
2022-09-21T21:04:03.870Z,11.96
2022-09-21T21:06:34.080Z,12.97
2022-09-21T21:09:01.033Z,11.61
2022-09-21T21:11:30.029Z,12.59
2022-09-21T21:13:56.829Z,12.16
2022-09-21T21:16:23.928Z,13.07
2022-09-21T21:18:52.893Z,13.03
2022-09-21T21:21:21.626Z,12.97
2022-09-21T21:24:10.077Z,12.20
2022-09-21T21:27:00.781Z,11.15
2022-09-21T21:29:26.633Z,12.26
2022-09-21T21:31:53.433Z,11.73
2022-09-21T21:34:20.757Z,12.30
2022-09-21T21:36:48.165Z,12.94
2022-09-21T21:39:17.158Z,11.92
2022-09-21T21:41:43.875Z,11.37
2022-09-21T21:44:11.527Z,11.93
2022-09-21T21:46:41.428Z,12.47
2022-09-21T21:49:08.123Z,11.86
2022-09-21T21:51:34.792Z,11.82
2022-09-21T21:54:01.545Z,12.68
2022-09-21T21:56:33.051Z,12.67
2022-09-21T21:58:59.710Z,12.45
2022-09-21T22:01:29.760Z,10.95
2022-09-21T22:24:16.058Z,11.86
2022-09-21T22:26:44.321Z,10.72
2022-09-21T22:29:14.981Z,12.50
2022-09-21T22:31:45.980Z,12.06
2022-09-21T22:34:15.565Z,12.41
2022-09-21T22:36:45.626Z,11.30
2022-09-21T22:39:15.354Z,11.52
2022-09-21T22:41:42.821Z,11.77
2022-09-21T22:44:10.488Z,11.81
2022-09-21T22:46:39.961Z,12.39
2022-09-21T22:49:09.719Z,11.51
2022-09-21T22:51:38.013Z,12.36
2022-09-21T22:54:07.278Z,12.10
2022-09-21T22:56:38.947Z,11.68
2022-09-21T22:59:05.793Z,11.46
2022-09-21T23:01:37.535Z,12.38
2022-09-21T23:04:09.712Z,12.38
2022-09-21T23:06:40.741Z,12.31
2022-09-21T23:09:15.114Z,12.30
2022-09-21T23:11:43.905Z,11.97
2022-09-21T23:14:11.687Z,12.29
2022-09-21T23:16:40.664Z,12.13
2022-09-21T23:19:15.482Z,12.28
2022-09-21T23:21:44.322Z,11.89
2022-09-21T23:24:10.966Z,11.84
2022-09-21T23:26:37.815Z,11.85
2022-09-21T23:29:09.265Z,12.23
2022-09-21T23:31:36.018Z,12.02
2022-09-21T23:34:08.552Z,12.17
2022-09-21T23:36:37.565Z,11.95
2022-09-21T23:39:08.036Z,11.71
2022-09-21T23:41:36.414Z,11.60
2022-09-21T23:44:06.043Z,11.63
2022-09-21T23:46:35.331Z,11.83
2022-09-21T23:49:02.090Z,12.15
2022-09-21T23:51:30.032Z,11.67
2022-09-21T23:53:57.822Z,12.08
2022-09-21T23:56:25.152Z,12.09
2022-09-21T23:58:52.344Z,12.07
